sensor_id;sensor_type;location;lat;lon;timestamp;pressure;altitude;pressure_sealevel;temperature;humidity
12073;BME280;6098;49.004;8.372;2023-09-19T00:10:09;99950.42;;;18.60;94.83
12073;BME280;6098;49.004;8.372;2023-09-19T00:25:04;99953.19;;;18.59;94.66
12073;BME280;6098;49.004;8.372;2023-09-19T00:39:56;99960.98;;;18.57;93.29
12073;BME280;6098;49.004;8.372;2023-09-19T00:54:49;99972.42;;;18.65;94.23
12073;BME280;6098;49.004;8.372;2023-09-19T01:09:40;99988.98;;;18.76;93.03
12073;BME280;6098;49.004;8.372;2023-09-19T01:54:58;100022.24;;;18.80;90.36
12073;BME280;6098;49.004;8.372;2023-09-19T02:09:49;100022.11;;;18.82;90.03
12073;BME280;6098;49.004;8.372;2023-09-19T02:24:42;100037.02;;;18.80;89.56
12073;BME280;6098;49.004;8.372;2023-09-19T02:39:34;100042.70;;;18.87;89.99
12073;BME280;6098;49.004;8.372;2023-09-19T02:54:26;100064.91;;;18.84;90.58
12073;BME280;6098;49.004;8.372;2023-09-19T03:09:18;100076.30;;;18.76;90.79
12073;BME280;6098;49.004;8.372;2023-09-19T03:24:10;100081.42;;;18.84;91.02
12073;BME280;6098;49.004;8.372;2023-09-19T03:39:02;100090.21;;;18.81;92.03
12073;BME280;6098;49.004;8.372;2023-09-19T03:53:54;100088.13;;;18.79;93.17
12073;BME280;6098;49.004;8.372;2023-09-19T04:08:47;100099.84;;;18.72;93.85
12073;BME280;6098;49.004;8.372;2023-09-19T04:23:41;100119.07;;;18.72;94.90
12073;BME280;6098;49.004;8.372;2023-09-19T04:38:34;100136.67;;;18.76;96.15
12073;BME280;6098;49.004;8.372;2023-09-19T04:53:27;100142.44;;;18.77;96.17
12073;BME280;6098;49.004;8.372;2023-09-19T05:08:19;100165.05;;;18.68;94.22
12073;BME280;6098;49.004;8.372;2023-09-19T05:23:11;100179.53;;;18.60;92.95
12073;BME280;6098;49.004;8.372;2023-09-19T05:38:03;100196.61;;;18.47;93.46
12073;BME280;6098;49.004;8.372;2023-09-19T05:52:55;100213.27;;;18.46;92.13
12073;BME280;6098;49.004;8.372;2023-09-19T06:07:48;100236.80;;;18.42;91.52
12073;BME280;6098;49.004;8.372;2023-09-19T06:37:31;100258.52;;;18.32;86.68
12073;BME280;6098;49.004;8.372;2023-09-19T06:52:24;100281.92;;;18.36;84.40
12073;BME280;6098;49.004;8.372;2023-09-19T07:07:16;100293.33;;;18.39;83.33
12073;BME280;6098;49.004;8.372;2023-09-19T07:22:08;100290.91;;;18.54;83.06
12073;BME280;6098;49.004;8.372;2023-09-19T07:37:02;100309.61;;;18.74;80.74
12073;BME280;6098;49.004;8.372;2023-09-19T07:51:54;100322.44;;;19.06;80.74
12073;BME280;6098;49.004;8.372;2023-09-19T08:06:46;100331.02;;;19.16;74.91
12073;BME280;6098;49.004;8.372;2023-09-19T08:21:40;100339.00;;;19.41;73.13
12073;BME280;6098;49.004;8.372;2023-09-19T08:36:33;100352.13;;;19.52;71.39
12073;BME280;6098;49.004;8.372;2023-09-19T08:51:44;100355.63;;;19.58;72.34
12073;BME280;6098;49.004;8.372;2023-09-19T09:06:44;100356.61;;;19.80;62.15
12073;BME280;6098;49.004;8.372;2023-09-19T09:21:37;100350.44;;;20.19;60.81
12073;BME280;6098;49.004;8.372;2023-09-19T09:36:37;100347.80;;;20.35;59.33
12073;BME280;6098;49.004;8.372;2023-09-19T09:51:32;100348.00;;;20.60;58.85
12073;BME280;6098;49.004;8.372;2023-09-19T10:06:25;100351.88;;;20.89;59.52
12073;BME280;6098;49.004;8.372;2023-09-19T10:21:17;100358.44;;;20.86;57.40
12073;BME280;6098;49.004;8.372;2023-09-19T10:36:10;100355.26;;;21.03;56.86
12073;BME280;6098;49.004;8.372;2023-09-19T10:51:12;100355.55;;;20.94;56.97
12073;BME280;6098;49.004;8.372;2023-09-19T11:06:11;100348.52;;;21.19;57.04
12073;BME280;6098;49.004;8.372;2023-09-19T11:21:38;100337.59;;;21.32;57.04
12073;BME280;6098;49.004;8.372;2023-09-19T11:36:29;100317.74;;;22.00;54.38
12073;BME280;6098;49.004;8.372;2023-09-19T11:51:20;100311.48;;;22.10;53.49
12073;BME280;6098;49.004;8.372;2023-09-19T12:06:14;100289.88;;;22.45;53.55
12073;BME280;6098;49.004;8.372;2023-09-19T12:21:07;100266.87;;;23.00;49.76
12073;BME280;6098;49.004;8.372;2023-09-19T12:36:00;100261.08;;;23.47;49.33
12073;BME280;6098;49.004;8.372;2023-09-19T13:06:03;100230.63;;;23.96;47.86
12073;BME280;6098;49.004;8.372;2023-09-19T13:21:08;100235.70;;;23.58;46.15
12073;BME280;6098;49.004;8.372;2023-09-19T13:36:07;100208.91;;;24.15;47.49
12073;BME280;6098;49.004;8.372;2023-09-19T13:51:01;100198.73;;;24.08;47.37
12073;BME280;6098;49.004;8.372;2023-09-19T14:05:53;100203.31;;;24.57;47.56
12073;BME280;6098;49.004;8.372;2023-09-19T14:20:46;100196.95;;;24.63;46.15
12073;BME280;6098;49.004;8.372;2023-09-19T14:35:40;100191.88;;;24.77;46.49
12073;BME280;6098;49.004;8.372;2023-09-19T14:50:32;100184.45;;;24.79;45.00
12073;BME280;6098;49.004;8.372;2023-09-19T15:05:23;100170.69;;;24.27;46.97
12073;BME280;6098;49.004;8.372;2023-09-19T15:20:14;100165.69;;;24.10;48.34
12073;BME280;6098;49.004;8.372;2023-09-19T15:35:07;100147.09;;;23.88;49.67
12073;BME280;6098;49.004;8.372;2023-09-19T15:50:00;100144.64;;;23.71;50.01
12073;BME280;6098;49.004;8.372;2023-09-19T16:04:54;100133.66;;;23.59;49.65
12073;BME280;6098;49.004;8.372;2023-09-19T16:19:44;100136.55;;;23.48;50.73
12073;BME280;6098;49.004;8.372;2023-09-19T16:34:36;100122.87;;;23.45;51.50
12073;BME280;6098;49.004;8.372;2023-09-19T16:49:28;100123.57;;;23.33;52.20
12073;BME280;6098;49.004;8.372;2023-09-19T17:04:19;100122.63;;;23.19;53.31
12073;BME280;6098;49.004;8.372;2023-09-19T17:19:11;100124.59;;;22.99;53.24
12073;BME280;6098;49.004;8.372;2023-09-19T17:34:02;100135.20;;;22.82;53.28
12073;BME280;6098;49.004;8.372;2023-09-19T17:48:55;100145.66;;;22.62;54.74
12073;BME280;6098;49.004;8.372;2023-09-19T18:03:44;100146.03;;;22.43;55.02
12073;BME280;6098;49.004;8.372;2023-09-19T18:18:36;100165.03;;;22.22;56.62
12073;BME280;6098;49.004;8.372;2023-09-19T18:33:27;100168.45;;;22.04;56.67
12073;BME280;6098;49.004;8.372;2023-09-19T18:48:18;100179.81;;;21.78;59.20
12073;BME280;6098;49.004;8.372;2023-09-19T19:03:09;100182.61;;;21.41;61.17
12073;BME280;6098;49.004;8.372;2023-09-19T19:18:01;100190.41;;;21.13;61.67
12073;BME280;6098;49.004;8.372;2023-09-19T19:32:53;100203.73;;;20.95;62.05
12073;BME280;6098;49.004;8.372;2023-09-19T19:47:45;100208.97;;;20.80;63.10
12073;BME280;6098;49.004;8.372;2023-09-19T20:05:17;100232.78;;;20.64;63.19
12073;BME280;6098;49.004;8.372;2023-09-19T20:07:44;100233.95;;;20.66;63.02
12073;BME280;6098;49.004;8.372;2023-09-19T20:22:02;100242.36;;;20.57;63.80
12073;BME280;6098;49.004;8.372;2023-09-19T20:36:53;100232.92;;;20.46;64.56
12073;BME280;6098;49.004;8.372;2023-09-19T20:51:44;100240.28;;;20.16;66.31
12073;BME280;6098;49.004;8.372;2023-09-19T21:06:36;100245.11;;;20.06;66.01
12073;BME280;6098;49.004;8.372;2023-09-19T21:21:35;100240.42;;;19.92;66.62
12073;BME280;6098;49.004;8.372;2023-09-19T21:36:31;100244.01;;;19.76;66.71
12073;BME280;6098;49.004;8.372;2023-09-19T21:51:22;100244.30;;;19.66;67.11
12073;BME280;6098;49.004;8.372;2023-09-19T22:06:13;100250.76;;;19.58;67.09
12073;BME280;6098;49.004;8.372;2023-09-19T22:21:04;100237.88;;;19.34;67.67
12073;BME280;6098;49.004;8.372;2023-09-19T22:35:56;100232.59;;;19.15;67.43
12073;BME280;6098;49.004;8.372;2023-09-19T23:05:48;100228.66;;;19.08;65.65
12073;BME280;6098;49.004;8.372;2023-09-19T23:20:40;100221.72;;;19.05;65.97
12073;BME280;6098;49.004;8.372;2023-09-19T23:35:32;100225.81;;;18.87;67.30
12073;BME280;6098;49.004;8.372;2023-09-19T23:50:24;100217.13;;;18.72;67.97
